Time;durP1;ratioP1;P1;durP2;ratioP2;P2;SDS_P1;SDS_P2;PMS_P1;PMS_P2;Temp;Humidity;BMP_temperature;BMP_pressure;BME280_temperature;BME280_humidity;BME280_pressure;Samples;Min_cycle;Max_cycle;Signal;HPM_P1;HPM_P2
2021/11/19 00:02:11;;;;;;;77.40;38.67;;;;;;;9.12;67.45;100989.63;5047843;28;20033;-22
2021/11/19 00:04:36;;;;;;;80.03;38.90;;;;;;;8.83;68.01;100986.00;5048298;28;20032;-21
2021/11/19 00:07:03;;;;;;;80.88;40.00;;;;;;;8.69;69.26;100990.31;5048145;28;20040;-22
2021/11/19 00:09:28;;;;;;;76.65;38.45;;;;;;;8.55;69.74;100991.97;5048528;28;20063;-22
2021/11/19 00:11:54;;;;;;;58.95;31.00;;;;;;;8.33;71.35;100993.63;5030500;28;20068;-21
2021/11/19 00:14:20;;;;;;;58.30;29.10;;;;;;;8.29;71.40;100995.00;5047698;28;20061;-22
2021/11/19 00:16:47;;;;;;;58.92;29.25;;;;;;;8.23;71.89;100980.63;5030515;28;20068;-21
2021/11/19 00:19:12;;;;;;;54.92;28.60;;;;;;;8.54;70.79;100997.44;5048318;28;20537;-21
2021/11/19 00:21:38;;;;;;;60.42;31.67;;;;;;;8.87;69.16;101002.41;5030427;28;20025;-22
2021/11/19 00:24:04;;;;;;;58.15;32.60;;;;;;;8.81;69.17;100999.47;5030119;28;20082;-22
2021/11/19 00:26:30;;;;;;;59.08;29.13;;;;;;;8.91;68.50;100990.38;5047871;28;20033;-22
2021/11/19 00:28:56;;;;;;;52.78;29.27;;;;;;;8.97;68.64;101002.94;5048060;28;20138;-21
2021/11/19 00:31:23;;;;;;;53.13;26.45;;;;;;;8.80;69.30;100997.81;5048047;28;20063;-21
2021/11/19 00:33:49;;;;;;;50.15;27.08;;;;;;;9.05;68.72;100989.53;5047883;28;20037;-21
2021/11/19 00:36:16;;;;;;;53.33;26.25;;;;;;;9.33;67.16;100995.00;5047822;28;20048;-22
2021/11/19 00:38:42;;;;;;;50.28;28.27;;;;;;;9.15;67.72;100997.22;5030306;28;20048;-22
2021/11/19 00:41:09;;;;;;;46.72;26.08;;;;;;;8.98;68.74;100978.81;5047940;28;20028;-22
2021/11/19 00:43:34;;;;;;;49.47;25.73;;;;;;;8.75;69.95;100994.09;5048098;28;20493;-22
2021/11/19 00:46:00;;;;;;;45.17;24.95;;;;;;;9.04;69.02;101003.88;5048013;28;20036;-22
2021/11/19 00:48:26;;;;;;;51.67;28.33;;;;;;;9.07;68.91;101003.47;5013400;28;20029;-21
2021/11/19 00:50:58;;;;;;;50.35;25.45;;;;;;;8.99;69.15;101006.25;5047910;28;20481;-21
2021/11/19 00:53:24;;;;;;;50.85;27.88;;;;;;;8.62;71.02;100994.69;5047947;28;20068;-21
2021/11/19 00:55:49;;;;;;;49.83;26.58;;;;;;;8.45;72.04;101004.69;5047495;28;20025;-22
2021/11/19 00:58:15;;;;;;;51.85;27.48;;;;;;;8.74;71.47;100998.56;5047646;28;20037;-22
2021/11/19 01:00:47;;;;;;;51.22;26.58;;;;;;;8.73;71.13;100999.56;5029917;28;20029;-21
2021/11/19 01:03:13;;;;;;;56.03;26.73;;;;;;;8.89;71.23;101001.22;5047911;28;20094;-21
2021/11/19 01:05:38;;;;;;;48.95;27.38;;;;;;;8.67;70.94;100987.00;5047790;28;20032;-22
2021/11/19 01:08:04;;;;;;;76.07;28.30;;;;;;;9.09;69.67;101005.97;5048036;28;20090;-21
2021/11/19 01:10:32;;;;;;;55.47;27.25;;;;;;;9.10;70.03;100996.97;5029608;28;20035;-21
2021/11/19 01:12:57;;;;;;;52.13;28.05;;;;;;;9.11;70.08;100987.97;5047918;28;20493;-22
2021/11/19 01:15:45;;;;;;;49.95;25.58;;;;;;;9.18;69.62;101003.03;5050982;28;20111;-22
2021/11/19 01:18:13;;;;;;;45.88;24.55;;;;;;;8.99;70.15;101001.78;5051184;28;20021;-21
2021/11/19 01:20:45;;;;;;;;;;;;;;;9.03;70.21;101010.19;5051815;28;20374;-22
2021/11/19 01:23:12;;;;;;;52.78;25.23;;;;;;;9.00;70.12;100991.94;5051546;28;20407;-22
2021/11/19 01:25:41;;;;;;;47.28;25.52;;;;;;;9.35;68.90;101000.13;5051387;28;20541;-21
2021/11/19 01:28:06;;;;;;;46.85;24.10;;;;;;;9.17;69.10;100996.03;5051332;28;20512;-21
2021/11/19 01:30:35;;;;;;;45.10;22.38;;;;;;;9.21;68.94;100997.34;5016726;28;20497;-22
2021/11/19 01:33:01;;;;;;;41.10;22.95;;;;;;;9.15;69.07;101000.72;5033150;28;20033;-22
2021/11/19 01:35:27;;;;;;;42.42;22.52;;;;;;;8.97;69.83;101011.78;5051061;28;20031;-22
2021/11/19 01:37:52;;;;;;;40.50;23.30;;;;;;;8.92;70.61;101006.16;5051231;28;20041;-21
2021/11/19 01:40:21;;;;;;;42.90;22.38;;;;;;;8.44;71.63;101001.22;5050643;28;20079;-22
2021/11/19 01:42:52;;;;;;;40.38;21.38;;;;;;;8.43;72.02;100991.56;5033116;28;20032;-21
2021/11/19 01:45:21;;;;;;;35.53;18.15;;;;;;;8.30;71.35;101004.66;5033819;28;20053;-21
2021/11/19 01:47:47;;;;;;;;;;;;;;;8.27;71.39;101007.66;5051453;28;20044;-22
2021/11/19 01:50:22;;;;;;;24.42;12.55;;;;;;;8.02;70.71;101002.56;5050733;28;19923;-21
2021/11/19 01:52:53;;;;;;;24.48;13.05;;;;;;;8.00;69.71;100991.28;5033038;28;20416;-22
2021/11/19 01:55:37;;;;;;;18.25;9.23;;;;;;;8.15;68.92;100986.03;5017115;28;20116;-21
2021/11/19 01:58:21;;;;;;;17.73;9.55;;;;;;;8.18;68.56;100992.81;5016983;28;20029;-22
2021/11/19 02:01:02;;;;;;;18.50;9.38;;;;;;;8.05;68.62;100980.97;5050474;28;20461;-23
2021/11/19 02:03:31;;;;;;;20.73;9.40;;;;;;;8.02;68.55;100978.66;5050440;28;20333;-21
2021/11/19 02:06:06;;;;;;;17.95;9.13;;;;;;;7.98;68.35;100984.50;5050544;28;20079;-21
2021/11/19 02:08:35;;;;;;;20.27;9.48;;;;;;;7.91;68.64;100987.06;5033105;28;20139;-22
2021/11/19 02:11:18;;;;;;;15.52;9.07;;;;;;;8.09;67.80;100988.56;5032520;28;20152;-21
2021/11/19 02:14:19;;;;;;;13.40;7.35;;;;;;;7.88;67.45;100976.78;5050152;28;20068;-22
2021/11/19 02:16:48;;;;;;;15.93;8.15;;;;;;;7.84;68.21;100983.44;5032497;28;20028;-22
2021/11/19 02:19:25;;;;;;;17.73;8.07;;;;;;;7.83;68.47;100973.84;5050032;28;20052;-22
2021/11/19 02:21:59;;;;;;;16.88;8.65;;;;;;;7.91;67.19;100987.06;5032397;28;20048;-22
2021/11/19 02:24:58;;;;;;;14.13;7.63;;;;;;;7.79;67.77;100972.56;5032080;28;20036;-22
2021/11/19 02:27:24;;;;;;;17.30;8.48;;;;;;;8.00;67.95;100985.97;5049850;28;20481;-22
2021/11/19 02:29:55;;;;;;;15.80;7.72;;;;;;;7.92;66.93;100967.44;5050240;28;20024;-22
2021/11/19 02:32:33;;;;;;;15.65;7.75;;;;;;;7.95;66.92;100972.41;5049901;28;20020;-23
2021/11/19 02:34:58;;;;;;;17.35;8.25;;;;;;;8.02;66.85;100978.66;5050074;28;20473;-21
2021/11/19 02:37:31;;;;;;;14.05;7.35;;;;;;;7.90;67.29;100972.13;5049839;28;20107;-22
2021/11/19 02:40:03;;;;;;;16.02;8.68;;;;;;;7.98;66.97;100979.19;5031999;28;20033;-21
2021/11/19 02:42:35;;;;;;;16.70;8.93;;;;;;;7.99;67.03;100975.56;5049903;28;20545;-22
2021/11/19 02:45:03;;;;;;;14.77;7.47;;;;;;;7.82;67.02;100953.59;5049803;28;20068;-21
2021/11/19 02:47:29;;;;;;;15.38;7.93;;;;;;;8.04;66.97;100981.94;5049845;28;20131;-22
2021/11/19 02:49:57;;;;;;;12.50;6.70;;;;;;;7.99;66.07;100973.72;5049823;28;20413;-21
2021/11/19 02:52:25;;;;;;;16.75;8.13;;;;;;;7.85;66.90;100963.88;5049532;28;20021;-22
2021/11/19 02:54:51;;;;;;;16.25;8.45;;;;;;;7.82;66.90;100967.69;5049590;28;20034;-21
2021/11/19 02:57:17;;;;;;;15.15;7.68;;;;;;;7.78;67.17;100954.97;5049583;28;20024;-21
2021/11/19 02:59:44;;;;;;;16.77;7.82;;;;;;;7.79;67.07;100969.91;5015108;28;20248;-22
2021/11/19 03:02:13;;;;;;;13.07;6.55;;;;;;;7.92;66.13;100972.75;5049356;28;20024;-21
2021/11/19 03:04:49;;;;;;;13.45;7.57;;;;;;;8.07;65.94;100985.25;5049532;28;20044;-22
2021/11/19 03:07:15;;;;;;;13.23;7.53;;;;;;;7.90;65.99;100981.91;5049578;28;20025;-21
2021/11/19 03:09:44;;;;;;;15.35;8.43;;;;;;;8.10;65.73;100974.28;5031503;28;20040;-21
2021/11/19 03:12:11;;;;;;;15.10;7.90;;;;;;;8.15;65.68;100971.91;5048905;28;20029;-21
2021/11/19 03:14:36;;;;;;;15.85;7.82;;;;;;;8.13;65.29;100973.91;5031272;28;20052;-21
2021/11/19 03:17:02;;;;;;;14.43;7.15;;;;;;;8.07;65.69;100970.16;5049178;28;20036;-21
2021/11/19 03:19:28;;;;;;;12.35;7.03;;;;;;;7.94;66.40;100976.06;5049494;28;20037;-22
2021/11/19 03:21:54;;;;;;;15.75;8.20;;;;;;;8.07;65.80;100969.31;5031319;28;20061;-21
2021/11/19 03:24:19;;;;;;;13.98;7.25;;;;;;;7.98;65.93;100966.72;5049055;28;20481;-22
2021/11/19 03:26:45;;;;;;;14.13;7.35;;;;;;;8.08;65.96;100955.03;5048717;28;20083;-21
2021/11/19 03:29:11;;;;;;;15.10;7.32;;;;;;;8.09;66.03;100975.28;5031010;28;20560;-22
2021/11/19 03:31:37;;;;;;;13.65;6.63;;;;;;;8.01;66.21;100976.19;5048766;28;20051;-21
2021/11/19 03:34:02;;;;;;;14.10;7.65;;;;;;;7.88;66.45;100968.81;5048752;28;20492;-22
2021/11/19 03:36:28;;;;;;;13.48;6.80;;;;;;;8.15;66.06;100970.09;5048269;28;20036;-21
2021/11/19 03:38:55;;;;;;;13.65;6.90;;;;;;;8.14;65.74;100975.56;5048935;28;20416;-21
2021/11/19 03:41:23;;;;;;;15.68;8.93;;;;;;;8.21;66.01;100965.84;5048537;28;20028;-22
2021/11/19 03:43:50;;;;;;;;;;;;;;;8.08;66.30;100965.66;5049200;28;20029;-22
2021/11/19 03:46:18;;;;;;;11.85;6.22;;;;;;;7.82;66.32;100941.13;5048338;28;20384;-22
2021/11/19 03:48:43;;;;;;;13.00;7.50;;;;;;;7.85;66.83;100970.00;5048577;28;20025;-21
2021/11/19 03:51:31;;;;;;;10.88;5.75;;;;;;;7.87;67.22;100972.50;5030769;28;20437;-22
2021/11/19 03:53:56;;;;;;;12.65;6.53;;;;;;;7.80;66.72;100959.06;5048589;28;20021;-22
2021/11/19 03:56:22;;;;;;;10.57;5.82;;;;;;;7.88;66.84;100971.47;5048222;28;20489;-21
2021/11/19 03:58:49;;;;;;;14.73;6.45;;;;;;;8.02;66.45;100976.00;5048529;28;20106;-23
2021/11/19 04:01:22;;;;;;;12.73;6.93;;;;;;;7.89;66.83;100967.81;5048282;28;20044;-22
2021/11/19 04:03:47;;;;;;;12.00;6.38;;;;;;;8.01;66.64;100961.06;5048651;28;20574;-21
2021/11/19 04:06:13;;;;;;;11.77;6.07;;;;;;;7.99;66.52;100972.91;5030123;28;20025;-21
2021/11/19 04:08:39;;;;;;;11.10;6.10;;;;;;;8.01;66.19;100950.44;5030740;28;20086;-22
2021/11/19 04:11:05;;;;;;;12.77;6.32;;;;;;;7.93;66.60;100963.00;5048297;28;20029;-21
2021/11/19 04:13:30;;;;;;;14.20;6.80;;;;;;;7.85;67.13;100951.41;5048463;28;20042;-22
2021/11/19 04:15:59;;;;;;;11.48;6.25;;;;;;;7.80;67.42;100963.56;5030659;28;20110;-22
2021/11/19 04:18:25;;;;;;;11.88;6.10;;;;;;;7.82;67.10;100961.56;5030131;28;20510;-21
2021/11/19 04:20:51;;;;;;;14.35;6.78;;;;;;;7.82;67.11;100958.91;5047911;28;20029;-23
2021/11/19 04:23:17;;;;;;;13.80;7.13;;;;;;;8.22;66.53;100972.84;5048847;28;20032;-21
2021/11/19 04:25:42;;;;;;;10.32;6.28;;;;;;;7.97;66.58;100967.75;5048275;28;20142;-22
2021/11/19 04:28:08;;;;;;;10.85;5.80;;;;;;;7.83;67.12;100958.72;5048081;28;20029;-22
2021/11/19 04:30:35;;;;;;;10.50;5.38;;;;;;;7.89;67.20;100978.44;5047579;28;20032;-21
2021/11/19 04:33:00;;;;;;;11.98;5.90;;;;;;;7.96;66.96;100974.06;5029165;28;20021;-22
2021/11/19 04:35:26;;;;;;;9.35;4.72;;;;;;;7.88;67.32;100975.97;5047272;28;20040;-21
2021/11/19 04:37:52;;;;;;;9.90;4.60;;;;;;;7.84;67.76;100968.34;5030410;28;20420;-21
2021/11/19 04:40:18;;;;;;;10.20;5.80;;;;;;;7.85;67.85;100971.84;5047839;28;20057;-21
2021/11/19 04:42:44;;;;;;;11.05;5.13;;;;;;;7.96;67.34;100966.09;5047921;28;20025;-22
2021/11/19 04:45:11;;;;;;;11.27;5.15;;;;;;;8.05;67.18;100978.31;5047752;28;20033;-21
2021/11/19 04:47:37;;;;;;;9.85;4.70;;;;;;;7.93;67.25;100966.47;5048148;28;20024;-21
2021/11/19 04:50:03;;;;;;;9.43;4.63;;;;;;;8.05;66.99;100970.34;5051837;28;20086;-22
2021/11/19 04:52:28;;;;;;;10.65;4.68;;;;;;;7.99;67.35;100968.41;5034038;28;20064;-21
2021/11/19 04:54:55;;;;;;;11.27;5.78;;;;;;;8.14;66.98;100962.28;5051931;28;20543;-21
2021/11/19 04:57:21;;;;;;;10.60;5.75;;;;;;;8.11;66.62;100962.63;5033924;28;20508;-22
2021/11/19 04:59:46;;;;;;;8.85;4.85;;;;;;;8.04;66.79;100971.31;5051557;28;20037;-22
2021/11/19 05:02:14;;;;;;;11.40;5.03;;;;;;;7.96;66.77;100959.97;5051484;28;20040;-22
2021/11/19 05:04:40;;;;;;;10.38;5.85;;;;;;;8.11;66.96;100976.78;5051539;28;20068;-22
2021/11/19 05:07:05;;;;;;;9.02;4.78;;;;;;;7.90;67.39;100956.19;5051544;28;20124;-21
2021/11/19 05:09:31;;;;;;;10.52;5.18;;;;;;;8.09;67.06;100973.47;5051663;28;20028;-22
2021/11/19 05:12:26;;;;;;;8.82;5.45;;;;;;;8.09;66.85;100977.94;5051675;28;20540;-22
2021/11/19 05:14:51;;;;;;;10.95;6.18;;;;;;;8.11;67.00;100976.78;5034807;28;20064;-22
2021/11/19 05:17:17;;;;;;;10.32;5.30;;;;;;;8.12;66.81;100961.66;5051206;28;20028;-22
2021/11/19 05:19:43;;;;;;;11.25;6.60;;;;;;;8.25;66.11;100985.75;5033493;28;20037;-21
2021/11/19 05:22:09;;;;;;;10.70;5.78;;;;;;;8.12;66.50;100983.72;5051110;28;20040;-22
2021/11/19 05:24:34;;;;;;;10.85;6.18;;;;;;;8.13;66.87;100992.50;5051183;28;20037;-22
2021/11/19 05:27:00;;;;;;;10.50;6.15;;;;;;;8.16;66.51;100989.50;5051225;28;20017;-22
2021/11/19 05:29:25;;;;;;;11.80;6.25;;;;;;;8.02;66.89;100973.34;5051243;28;20040;-21
2021/11/19 05:31:51;;;;;;;11.40;6.18;;;;;;;7.87;67.31;100985.75;5051511;28;20033;-22
2021/11/19 05:34:17;;;;;;;11.73;6.38;;;;;;;8.04;66.78;100997.88;5033041;28;20033;-21
2021/11/19 05:36:43;;;;;;;13.02;6.68;;;;;;;8.04;66.54;100997.88;5051112;28;20036;-22
2021/11/19 05:39:08;;;;;;;12.20;5.95;;;;;;;8.03;66.80;101004.22;5032923;28;20036;-22
2021/11/19 05:41:34;;;;;;;13.63;7.38;;;;;;;8.09;66.79;101023.09;5050962;28;20060;-22
2021/11/19 05:43:59;;;;;;;14.02;7.13;;;;;;;8.33;65.93;101017.56;5050982;28;20040;-21
2021/11/19 05:46:26;;;;;;;14.48;7.30;;;;;;;8.41;65.54;101014.84;5050485;28;20100;-21
2021/11/19 05:48:53;;;;;;;13.93;7.60;;;;;;;8.48;65.49;101035.41;5050998;28;20033;-22
2021/11/19 05:51:19;;;;;;;12.55;6.68;;;;;;;8.24;65.86;101034.59;5051145;28;20128;-22
2021/11/19 05:53:45;;;;;;;12.20;7.25;;;;;;;8.24;66.16;101019.47;5050676;28;20484;-22
2021/11/19 05:56:11;;;;;;;12.60;7.18;;;;;;;8.22;65.99;101002.06;5050327;28;20028;-22
2021/11/19 05:58:37;;;;;;;11.65;7.20;;;;;;;8.40;65.91;101028.31;5050890;28;20037;-22
2021/11/19 06:01:06;;;;;;;15.38;7.10;;;;;;;8.39;65.95;101038.09;5049678;28;20032;-21
2021/11/19 06:03:32;;;;;;;15.07;7.93;;;;;;;8.62;65.85;101039.91;5050586;28;20037;-22
2021/11/19 06:05:57;;;;;;;13.10;6.95;;;;;;;8.58;65.27;101033.31;5050612;28;20033;-21
2021/11/19 06:08:23;;;;;;;13.25;7.35;;;;;;;8.43;65.29;101039.41;5050628;28;20091;-22
2021/11/19 06:10:53;;;;;;;14.75;7.80;;;;;;;8.56;65.82;101041.47;5032593;28;20036;-21
2021/11/19 06:13:40;;;;;;;11.00;6.63;;;;;;;8.27;65.76;101046.69;5032648;28;20076;-22
2021/11/19 06:16:08;;;;;;;13.15;7.38;;;;;;;8.15;66.28;101033.00;5050636;28;20076;-21
2021/11/19 06:18:38;;;;;;;11.63;7.30;;;;;;;8.33;66.20;101038.81;5050545;28;20093;-22
2021/11/19 06:21:06;;;;;;;12.90;7.50;;;;;;;8.30;66.76;101044.50;5016243;28;20271;-22
2021/11/19 06:23:34;;;;;;;12.40;7.22;;;;;;;8.19;66.36;101036.97;5016110;28;20075;-22
2021/11/19 06:26:00;;;;;;;12.40;7.20;;;;;;;8.21;66.68;101045.56;5032709;28;20509;-21
2021/11/19 06:28:34;;;;;;;13.93;7.07;;;;;;;8.43;66.34;101044.75;5032545;28;20021;-21
2021/11/19 06:31:00;;;;;;;14.20;7.90;;;;;;;8.40;66.06;101044.28;5033352;28;20050;-22
2021/11/19 06:33:26;;;;;;;15.25;8.45;;;;;;;8.21;67.02;101045.56;5049920;28;20025;-21
2021/11/19 06:35:52;;;;;;;15.43;7.32;;;;;;;8.13;67.19;101035.00;5050253;28;20040;-22
2021/11/19 06:38:17;;;;;;;13.80;7.93;;;;;;;8.25;67.07;101041.56;5049629;28;20033;-22
2021/11/19 06:40:43;;;;;;;15.18;7.95;;;;;;;8.43;66.90;101041.25;5032201;28;20040;-22
2021/11/19 06:43:09;;;;;;;15.90;8.18;;;;;;;8.31;66.55;101035.53;5049969;28;20082;-21
2021/11/19 06:45:35;;;;;;;12.65;6.90;;;;;;;8.24;66.98;101034.59;5049815;28;20065;-22
2021/11/19 06:48:03;;;;;;;13.43;7.30;;;;;;;8.38;66.60;101041.78;5049774;28;20067;-23
2021/11/19 06:50:29;;;;;;;13.00;7.10;;;;;;;8.25;66.85;101036.25;5049434;28;20033;-22
2021/11/19 06:52:55;;;;;;;13.13;7.30;;;;;;;8.36;67.16;101040.31;5049550;28;20033;-22
2021/11/19 06:55:20;;;;;;;14.88;8.15;;;;;;;8.42;66.34;101016.53;5049820;28;20162;-22
2021/11/19 06:57:46;;;;;;;11.70;7.05;;;;;;;8.76;65.77;101023.13;5049355;28;20017;-21
2021/11/19 07:00:26;;;;;;;12.75;6.85;;;;;;;8.48;66.10;101014.13;5049175;28;20032;-22
2021/11/19 07:02:52;;;;;;;15.38;6.78;;;;;;;8.69;65.50;101038.19;5049486;28;20029;-22
2021/11/19 07:05:18;;;;;;;12.45;7.88;;;;;;;8.72;65.46;101037.81;5031548;28;20087;-22
2021/11/19 07:07:43;;;;;;;20.88;10.98;;;;;;;8.83;65.08;101040.03;5049121;28;20033;-21
2021/11/19 07:10:09;;;;;;;27.75;14.75;;;;;;;8.76;65.16;101033.78;5049152;28;20037;-22
2021/11/19 07:12:35;;;;;;;14.77;7.53;;;;;;;8.56;65.05;101028.19;5049330;28;20108;-22
2021/11/19 07:15:01;;;;;;;15.68;7.10;;;;;;;8.51;64.99;101030.56;5049037;28;20247;-22
2021/11/19 07:17:26;;;;;;;14.00;8.32;;;;;;;8.63;65.24;101044.22;5049051;28;20401;-21
2021/11/19 07:19:52;;;;;;;13.93;7.88;;;;;;;8.50;65.68;101014.78;5049321;28;20087;-22
2021/11/19 07:22:17;;;;;;;15.20;8.40;;;;;;;8.85;65.07;101047.81;5048986;28;20036;-22
2021/11/19 07:24:43;;;;;;;14.95;8.45;;;;;;;8.63;64.80;101033.59;5049116;28;20029;-21
2021/11/19 07:27:11;;;;;;;14.35;8.98;;;;;;;8.66;64.80;101038.53;5030768;28;20029;-22
2021/11/19 07:29:36;;;;;;;13.77;8.25;;;;;;;8.58;65.18;101031.50;5048873;28;20025;-22
2021/11/19 07:32:02;;;;;;;13.80;8.07;;;;;;;8.80;64.95;101040.38;5048985;28;20106;-22
2021/11/19 07:34:28;;;;;;;14.07;8.60;;;;;;;8.97;64.75;101040.19;5048596;28;20029;-22
2021/11/19 07:36:53;;;;;;;15.18;8.85;;;;;;;8.74;65.02;101038.44;5048797;28;20100;-22
2021/11/19 07:39:19;;;;;;;15.70;8.88;;;;;;;8.77;64.67;101030.13;5030961;28;20044;-22
2021/11/19 07:41:44;;;;;;;17.48;9.13;;;;;;;8.94;64.98;101043.22;5048894;28;20033;-23
2021/11/19 07:44:09;;;;;;;17.35;10.15;;;;;;;8.82;64.62;101037.53;5048637;28;20036;-22
2021/11/19 07:46:35;;;;;;;19.75;9.80;;;;;;;8.94;64.34;101035.25;5030993;28;20068;-21
2021/11/19 07:49:01;;;;;;;17.23;9.32;;;;;;;8.99;63.50;101022.19;5048637;28;20029;-22
2021/11/19 07:51:30;;;;;;;15.52;9.65;;;;;;;9.16;63.81;101044.13;5048480;28;20069;-21
2021/11/19 07:53:56;;;;;;;17.13;9.40;;;;;;;8.99;63.37;101032.84;5048471;28;20036;-22
2021/11/19 07:56:29;;;;;;;19.08;11.25;;;;;;;8.84;63.39;101017.72;5048818;28;20021;-22
2021/11/19 07:58:55;;;;;;;18.40;10.07;;;;;;;8.89;63.03;101024.31;5048504;28;20638;-22
2021/11/19 08:01:20;;;;;;;17.02;10.05;;;;;;;8.84;62.83;101041.66;5048393;28;20111;-22
2021/11/19 08:03:47;;;;;;;17.45;10.40;;;;;;;8.91;62.03;101046.25;5048768;28;20037;-21
2021/11/19 08:06:12;;;;;;;17.15;10.05;;;;;;;8.74;62.80;101019.00;5048400;28;20036;-22
2021/11/19 08:08:38;;;;;;;14.07;9.48;;;;;;;8.75;62.20;101023.34;5048572;28;20040;-21
2021/11/19 08:11:07;;;;;;;17.90;10.30;;;;;;;8.92;61.50;101026.63;5048164;28;20047;-21
2021/11/19 08:13:32;;;;;;;19.15;10.23;;;;;;;8.94;62.26;101035.25;5048386;28;20515;-21
2021/11/19 08:15:58;;;;;;;17.33;10.13;;;;;;;8.71;61.59;101036.16;5048457;28;20025;-22
2021/11/19 08:18:28;;;;;;;16.23;10.30;;;;;;;8.70;62.29;101031.84;5048251;28;20482;-22
2021/11/19 08:20:54;;;;;;;19.20;10.63;;;;;;;8.77;61.94;101024.81;5031186;28;20032;-21
2021/11/19 08:23:23;;;;;;;17.73;9.77;;;;;;;8.83;61.60;101034.69;5047827;28;20033;-22
2021/11/19 08:25:48;;;;;;;18.55;10.63;;;;;;;8.87;61.59;101018.38;5048107;28;20032;-22
2021/11/19 08:28:14;;;;;;;16.08;9.48;;;;;;;8.79;61.11;101016.66;5047812;28;20064;-21
2021/11/19 08:30:42;;;;;;;16.52;10.07;;;;;;;9.07;61.45;101024.75;5048242;28;20025;-22
2021/11/19 08:33:08;;;;;;;16.33;10.20;;;;;;;8.98;60.49;101036.53;5048436;28;20545;-22
2021/11/19 08:35:39;;;;;;;18.88;10.10;;;;;;;8.63;61.56;101023.78;5048181;28;20104;-22
2021/11/19 08:38:05;;;;;;;17.65;11.18;;;;;;;8.93;61.27;101038.91;5048235;28;20028;-23
2021/11/19 08:40:31;;;;;;;18.15;10.63;;;;;;;9.05;61.45;101034.78;5048405;28;20059;-21
2021/11/19 08:42:57;;;;;;;18.38;10.20;;;;;;;9.14;60.55;101028.34;5047686;28;20037;-21
2021/11/19 08:45:23;;;;;;;18.13;10.38;;;;;;;9.13;60.65;101013.38;5048091;28;20025;-22
2021/11/19 08:47:51;;;;;;;18.80;11.15;;;;;;;8.96;61.53;101004.78;5047911;28;20505;-22
2021/11/19 08:50:17;;;;;;;19.55;10.43;;;;;;;8.94;61.17;101016.63;5047673;28;20528;-21
2021/11/19 08:52:43;;;;;;;19.98;12.07;;;;;;;9.28;61.22;101016.03;5048116;28;20131;-22
2021/11/19 08:55:09;;;;;;;19.77;10.98;;;;;;;9.29;60.93;101007.03;5047507;28;20230;-22
2021/11/19 08:57:35;;;;;;;17.55;10.02;;;;;;;9.23;60.20;101024.59;5048052;28;20504;-21
2021/11/19 09:00:01;;;;;;;17.80;10.48;;;;;;;9.18;60.98;101016.31;5047417;28;20029;-22
2021/11/19 09:02:26;;;;;;;16.25;10.48;;;;;;;9.25;61.43;101024.38;5047583;28;20037;-23
2021/11/19 09:04:54;;;;;;;17.95;10.75;;;;;;;9.10;62.02;101012.94;5047816;28;20060;-22
2021/11/19 09:07:19;;;;;;;19.23;11.10;;;;;;;9.22;60.74;101004.28;5029920;28;20068;-22
2021/11/19 09:09:45;;;;;;;19.58;10.63;;;;;;;9.36;61.10;101007.13;5047875;28;20109;-21
2021/11/19 09:12:11;;;;;;;19.52;10.70;;;;;;;9.25;61.50;101003.09;5047488;28;20072;-22
2021/11/19 09:14:37;;;;;;;16.50;10.15;;;;;;;9.47;60.32;100997.81;5047794;28;20065;-21
2021/11/19 09:17:02;;;;;;;17.52;10.35;;;;;;;9.65;59.58;100996.34;5047550;28;20413;-22
2021/11/19 09:19:51;;;;;;;18.15;10.15;;;;;;;9.53;58.76;100975.75;5047712;28;20029;-22
2021/11/19 09:22:32;;;;;;;15.70;9.10;;;;;;;9.43;59.69;100997.34;5014191;28;20108;-22
2021/11/19 09:24:58;;;;;;;17.85;9.82;;;;;;;9.52;59.40;100995.38;5047405;28;20040;-22
2021/11/19 09:27:24;;;;;;;17.02;9.65;;;;;;;9.60;59.54;100990.78;5013549;28;20025;-22
2021/11/19 09:29:52;;;;;;;16.08;9.70;;;;;;;9.72;58.98;100984.94;5029739;28;20047;-21
2021/11/19 09:32:19;;;;;;;15.52;9.18;;;;;;;9.58;59.22;100983.97;5029468;28;20475;-22
2021/11/19 09:34:48;;;;;;;18.45;10.13;;;;;;;9.62;59.06;100969.28;5047935;28;20120;-21
2021/11/19 09:37:14;;;;;;;15.13;9.10;;;;;;;9.75;59.51;100957.94;5051117;28;20451;-22
2021/11/19 09:39:40;;;;;;;16.65;10.10;;;;;;;9.69;59.39;100969.34;5051058;28;20063;-21
2021/11/19 09:42:31;;;;;;;18.55;10.05;;;;;;;9.75;57.50;100963.25;5033275;28;20029;-21
2021/11/19 09:45:20;;;;;;;14.35;9.05;;;;;;;9.56;59.21;100965.56;5050987;28;20032;-21
2021/11/19 09:47:55;;;;;;;16.52;10.30;;;;;;;9.83;57.98;100955.13;5033052;28;20512;-21
2021/11/19 09:50:51;;;;;;;16.80;10.20;;;;;;;9.95;57.18;100952.75;5033350;28;20033;-22
2021/11/19 09:53:50;;;;;;;17.77;10.15;;;;;;;9.89;58.64;100943.72;5050922;28;20051;-22
2021/11/19 09:56:43;;;;;;;17.20;9.73;;;;;;;10.05;57.16;100943.44;5050522;28;20037;-22
2021/11/19 09:59:19;;;;;;;16.30;9.73;;;;;;;9.90;57.47;100945.34;5050804;28;20037;-21
2021/11/19 10:02:22;;;;;;;16.20;10.32;;;;;;;10.05;57.46;100943.44;5032696;28;20025;-21
2021/11/19 10:05:06;;;;;;;14.95;9.05;;;;;;;10.04;57.14;100931.09;5050597;28;20032;-21
2021/11/19 10:07:41;;;;;;;16.05;9.75;;;;;;;10.14;56.95;100924.63;5050399;28;20033;-21
2021/11/19 10:10:16;;;;;;;16.60;9.55;;;;;;;10.37;56.37;100922.53;5032503;28;20033;-23
2021/11/19 10:13:15;;;;;;;15.68;9.63;;;;;;;10.39;56.00;100925.00;5051103;28;20064;-21
2021/11/19 10:15:49;;;;;;;15.13;8.88;;;;;;;9.90;56.26;100902.72;5001711;28;20044;-21
2021/11/19 10:18:41;;;;;;;15.43;9.25;;;;;;;10.27;55.87;100906.84;5050065;28;20040;-21
2021/11/19 10:21:18;;;;;;;14.98;9.45;;;;;;;10.32;57.10;100890.31;5050153;28;20029;-22
2021/11/19 10:23:50;;;;;;;15.95;9.55;;;;;;;10.32;55.50;100895.66;5050450;28;20040;-22
2021/11/19 10:26:30;;;;;;;15.07;8.52;;;;;;;10.41;55.83;100894.44;5050148;28;20029;-22
2021/11/19 10:29:00;;;;;;;17.83;9.95;;;;;;;10.06;55.46;100864.28;5050206;28;20033;-22
2021/11/19 10:31:25;;;;;;;15.38;8.90;;;;;;;10.11;55.59;100861.03;5032578;28;20032;-22
2021/11/19 10:33:50;;;;;;;15.52;9.55;;;;;;;10.33;55.57;100881.28;5049918;28;20033;-22
2021/11/19 10:36:44;;;;;;;16.40;9.15;;;;;;;10.66;55.06;100869.94;5049861;28;20024;-21
2021/11/19 10:39:45;;;;;;;14.98;8.82;;;;;;;10.71;53.92;100845.34;5049786;28;20636;-21
2021/11/19 10:42:49;;;;;;;14.32;9.07;;;;;;;10.89;54.45;100852.78;5034396;28;20167;-21
2021/11/19 10:45:20;;;;;;;15.00;8.98;;;;;;;11.23;52.94;100851.81;5049868;28;20021;-22
2021/11/19 10:48:06;;;;;;;13.10;7.97;;;;;;;11.64;53.07;100850.78;5049834;28;20036;-21
2021/11/19 10:50:47;;;;;;;15.65;9.13;;;;;;;11.75;52.00;100849.34;5049507;28;20036;-21
2021/11/19 10:53:43;;;;;;;11.88;7.35;;;;;;;11.61;50.89;100849.38;5049547;28;20550;-22
2021/11/19 10:56:27;;;;;;;17.55;9.45;;;;;;;11.83;51.14;100857.16;5049272;28;20397;-22
2021/11/19 10:58:58;;;;;;;12.65;6.38;;;;;;;11.38;50.38;100846.28;5049540;28;20753;-22
2021/11/19 11:01:47;;;;;;;11.80;8.25;;;;;;;11.01;51.70;100829.81;5031705;28;20032;-22
2021/11/19 11:04:18;;;;;;;11.10;7.22;;;;;;;11.17;51.63;100844.63;5049190;28;20029;-22
2021/11/19 11:06:47;;;;;;;15.75;7.32;;;;;;;11.17;51.34;100826.75;5049702;28;20546;-21
2021/11/19 11:09:29;;;;;;;12.38;7.18;;;;;;;10.98;51.56;100832.91;5049367;28;20060;-22
2021/11/19 11:12:42;;;;;;;12.45;6.88;;;;;;;10.84;51.93;100827.50;5049255;28;20044;-22
2021/11/19 11:15:45;;;;;;;12.88;6.60;;;;;;;11.11;50.91;100811.53;5041869;28;20055;-22
2021/11/19 11:18:21;;;;;;;13.20;7.75;;;;;;;11.38;51.08;100792.84;5044084;28;20052;-22
2021/11/19 11:20:52;;;;;;;12.93;7.47;;;;;;;11.72;50.19;100820.38;5049038;28;20059;-21
2021/11/19 11:23:30;;;;;;;10.93;7.13;;;;;;;12.15;48.08;100814.53;5048970;28;20029;-22
2021/11/19 11:26:00;;;;;;;13.95;7.57;;;;;;;11.99;48.78;100813.16;5049242;28;20095;-21
2021/11/19 11:28:36;;;;;;;10.82;6.53;;;;;;;11.50;49.76;100799.22;5048819;28;20432;-21
2021/11/19 11:31:16;;;;;;;10.98;6.82;;;;;;;11.46;49.79;100804.19;5049284;28;20037;-21
2021/11/19 11:33:56;;;;;;;10.90;6.85;;;;;;;11.35;50.22;100787.94;5031523;28;20093;-21
2021/11/19 11:36:38;;;;;;;11.85;7.05;;;;;;;11.24;49.85;100792.06;5048730;28;20040;-22